Time;durP1;ratioP1;P1;durP2;ratioP2;P2;SDS_P1;SDS_P2;PMS_P1;PMS_P2;Temp;Humidity;BMP_temperature;BMP_pressure;BME280_temperature;BME280_humidity;BME280_pressure;Samples;Min_cycle;Max_cycle;Signal;HPM_P1;HPM_P2
2023/03/19 00:00:43;;;;;;;10.82;7.78;;;27.20;99.90;;;;;;5008163;28;20731;-76
2023/03/19 00:03:14;;;;;;;12.15;7.75;;;27.30;99.90;;;;;;5009829;28;20221;-76
2023/03/19 00:05:52;;;;;;;11.45;8.30;;;27.40;99.90;;;;;;5010916;28;20213;-77
2023/03/19 00:08:23;;;;;;;9.65;7.40;;;27.50;99.90;;;;;;5010119;28;20231;-77
2023/03/19 00:10:58;;;;;;;8.98;7.78;;;27.60;99.90;;;;;;5010310;28;20225;-77
2023/03/19 00:13:30;;;;;;;10.40;7.68;;;27.70;99.90;;;;;;5010268;28;20239;-76
2023/03/19 00:16:03;;;;;;;11.30;7.68;;;27.80;99.90;;;;;;5007693;28;20575;-76
2023/03/19 00:18:34;;;;;;;8.50;6.30;;;27.80;99.90;;;;;;5010257;28;20232;-76
2023/03/19 00:21:06;;;;;;;10.00;6.80;;;27.90;99.90;;;;;;5010257;28;20273;-77
2023/03/19 00:23:37;;;;;;;8.57;6.15;;;28.10;99.90;;;;;;5007320;28;20654;-77
2023/03/19 00:26:08;;;;;;;9.80;7.00;;;28.30;99.90;;;;;;5010272;28;20800;-78
2023/03/19 00:28:39;;;;;;;8.90;6.22;;;28.40;99.90;;;;;;5009528;28;20206;-78
2023/03/19 00:31:15;;;;;;;9.45;6.40;;;28.50;99.90;;;;;;5009211;28;20656;-77
2023/03/19 00:33:46;;;;;;;6.90;5.68;;;28.60;99.90;;;;;;5007625;28;20657;-78
2023/03/19 00:36:17;;;;;;;10.32;6.18;;;28.70;99.90;;;;;;5008204;28;20198;-78
2023/03/19 00:38:49;;;;;;;10.27;6.10;;;28.90;99.90;;;;;;5011769;28;20237;-78
2023/03/19 00:41:20;;;;;;;7.38;6.05;;;28.90;99.90;;;;;;5009781;28;20206;-77
2023/03/19 00:43:56;;;;;;;7.63;6.28;;;29.00;99.90;;;;;;5014795;28;20202;-77
2023/03/19 00:46:29;;;;;;;7.40;5.75;;;29.10;99.90;;;;;;5007713;28;20563;-77
2023/03/19 00:49:03;;;;;;;8.60;6.00;;;29.20;99.90;;;;;;5006186;28;20632;-77
2023/03/19 00:51:34;;;;;;;16.80;8.00;;;29.20;99.90;;;;;;5006937;28;20631;-77
2023/03/19 00:54:05;;;;;;;12.50;7.45;;;29.40;99.90;;;;;;5007215;28;20300;-78
2023/03/19 00:56:37;;;;;;;11.25;7.72;;;29.40;99.90;;;;;;5008700;28;20229;-78
2023/03/19 00:59:08;;;;;;;10.85;7.00;;;29.60;99.90;;;;;;5008591;28;20228;-78
2023/03/19 01:01:42;;;;;;;12.82;7.43;;;29.60;99.90;;;;;;5007118;28;21012;-78
2023/03/19 01:04:13;;;;;;;11.40;6.95;;;29.60;99.90;;;;;;5009186;28;20211;-78
2023/03/19 01:06:45;;;;;;;11.93;7.18;;;29.70;99.90;;;;;;5014955;28;20193;-78
2023/03/19 01:09:19;;;;;;;9.90;6.88;;;29.70;99.90;;;;;;5008882;28;20204;-78
2023/03/19 01:11:50;;;;;;;11.98;7.07;;;29.70;99.90;;;;;;5008556;28;20684;-78
2023/03/19 01:14:21;;;;;;;12.60;7.63;;;29.70;99.90;;;;;;5008237;28;20263;-78
2023/03/19 01:16:54;;;;;;;12.32;7.40;;;29.70;99.90;;;;;;5007651;28;20708;-78
2023/03/19 01:19:26;;;;;;;12.85;7.90;;;29.70;99.90;;;;;;5006807;28;20205;-77
2023/03/19 01:21:57;;;;;;;10.45;6.97;;;29.70;99.90;;;;;;5006832;28;20205;-77
2023/03/19 01:24:31;;;;;;;10.77;7.28;;;29.80;99.90;;;;;;5007768;28;20264;-77
2023/03/19 01:27:04;;;;;;;11.80;7.55;;;29.90;99.90;;;;;;5007530;28;20675;-77
2023/03/19 01:29:35;;;;;;;13.10;7.75;;;30.00;99.90;;;;;;5008431;28;20212;-76
2023/03/19 01:32:10;;;;;;;12.52;7.43;;;30.00;99.90;;;;;;5008572;28;20210;-77
2023/03/19 01:34:41;;;;;;;11.93;7.57;;;30.10;99.90;;;;;;5008211;28;20220;-77
2023/03/19 01:37:12;;;;;;;13.23;7.18;;;30.20;99.90;;;;;;5011817;28;20202;-77
2023/03/19 01:39:44;;;;;;;14.00;7.22;;;30.20;99.90;;;;;;5010414;28;20217;-76
2023/03/19 01:42:17;;;;;;;8.75;6.70;;;30.30;99.90;;;;;;5011962;28;20200;-77
2023/03/19 01:44:49;;;;;;;12.65;6.68;;;30.40;99.90;;;;;;5015886;28;20213;-78
2023/03/19 01:47:27;;;;;;;9.93;6.60;;;30.50;99.90;;;;;;5010033;28;20288;-76
2023/03/19 01:50:00;;;;;;;13.43;6.57;;;30.50;99.90;;;;;;5011019;28;20206;-76
2023/03/19 01:52:35;;;;;;;20.48;7.00;;;30.50;99.90;;;;;;5015144;28;20198;-78
2023/03/19 01:55:08;;;;;;;11.82;6.57;;;30.50;99.90;;;;;;5015864;28;20628;-77
2023/03/19 01:57:39;;;;;;;12.60;6.85;;;30.50;99.90;;;;;;5014442;28;20204;-77
2023/03/19 02:00:14;;;;;;;11.23;7.40;;;30.50;99.90;;;;;;5012828;28;20202;-78
2023/03/19 02:02:52;;;;;;;13.52;7.15;;;30.60;99.90;;;;;;5012485;28;20660;-77
2023/03/19 02:05:26;;;;;;;14.10;7.88;;;30.50;99.90;;;;;;5008949;28;20243;-77
2023/03/19 02:07:59;;;;;;;11.23;7.35;;;30.70;99.90;;;;;;5020937;28;20254;-77
2023/03/19 02:10:39;;;;;;;11.55;6.70;;;30.70;99.90;;;;;;5016386;28;20201;-77
2023/03/19 02:13:11;;;;;;;14.48;6.85;;;30.80;99.90;;;;;;5020548;28;20724;-77
2023/03/19 02:15:46;;;;;;;11.38;7.03;;;30.80;99.90;;;;;;5018488;28;20550;-78
2023/03/19 02:18:22;;;;;;;11.50;7.00;;;30.70;99.90;;;;;;4995988;28;20220;-78
2023/03/19 02:20:58;;;;;;;15.45;7.18;;;30.80;99.90;;;;;;5012641;28;20696;-77
2023/03/19 02:23:44;;;;;;;9.77;6.95;;;30.80;99.90;;;;;;5012622;28;20455;-77
2023/03/19 02:26:20;;;;;;;10.07;6.90;;;30.90;99.90;;;;;;5014671;28;20208;-76
2023/03/19 02:28:52;;;;;;;12.25;7.18;;;30.80;99.90;;;;;;5014278;28;20193;-78
2023/03/19 02:31:26;;;;;;;9.40;6.95;;;30.90;99.90;;;;;;5018192;28;20542;-77
2023/03/19 02:34:02;;;;;;;9.63;7.22;;;31.00;99.90;;;;;;5017960;28;22696;-77
2023/03/19 02:36:41;;;;;;;11.18;7.50;;;31.00;99.90;;;;;;5012193;28;20201;-78
2023/03/19 02:39:19;;;;;;;9.95;7.28;;;31.00;99.90;;;;;;5024792;28;20553;-78
2023/03/19 02:41:58;;;;;;;10.45;7.88;;;31.00;99.90;;;;;;5026374;28;20694;-77
2023/03/19 02:44:36;;;;;;;8.38;6.65;;;31.10;99.90;;;;;;5028225;28;20200;-78
2023/03/19 02:49:59;;;;;;;12.13;6.68;;;31.20;99.90;;;;;;5013638;28;20217;-77
2023/03/19 02:52:40;;;;;;;10.45;7.28;;;31.30;99.90;;;;;;5019008;28;20569;-78
2023/03/19 02:55:11;;;;;;;11.57;7.97;;;31.30;99.90;;;;;;5016077;28;20236;-78
2023/03/19 02:57:45;;;;;;;9.95;7.40;;;31.50;99.90;;;;;;5016192;28;20204;-78
2023/03/19 03:00:18;;;;;;;9.13;8.15;;;31.60;99.90;;;;;;5013861;28;20201;-78
2023/03/19 03:02:49;;;;;;;9.02;7.57;;;31.70;99.90;;;;;;5011705;28;20217;-78
2023/03/19 03:05:20;;;;;;;10.30;8.10;;;31.70;99.90;;;;;;5010766;28;20569;-78
2023/03/19 03:07:57;;;;;;;8.88;7.97;;;31.70;99.90;;;;;;5021878;28;20581;-79
2023/03/19 03:10:46;;;;;;;12.25;9.57;;;31.70;99.90;;;;;;5017217;28;20205;-78
2023/03/19 03:13:23;;;;;;;13.27;8.93;;;31.70;99.90;;;;;;5014030;28;20271;-78
2023/03/19 03:15:54;;;;;;;10.13;9.10;;;31.80;99.90;;;;;;5011218;28;20193;-78
2023/03/19 03:18:25;;;;;;;12.35;10.23;;;31.60;99.90;;;;;;5015286;28;20668;-78
2023/03/19 03:20:58;;;;;;;14.85;9.48;;;31.60;99.90;;;;;;5011992;28;20209;-77
2023/03/19 03:23:30;;;;;;;14.32;10.05;;;31.60;99.90;;;;;;5010841;28;20197;-77
2023/03/19 03:26:01;;;;;;;12.60;9.98;;;31.60;99.90;;;;;;5014268;28;20230;-79
2023/03/19 03:28:34;;;;;;;13.27;10.05;;;31.60;99.90;;;;;;5019280;28;20305;-78
2023/03/19 03:31:13;;;;;;;13.15;10.20;;;31.60;99.90;;;;;;5019137;28;20679;-78
2023/03/19 03:33:44;;;;;;;12.65;8.95;;;31.60;99.90;;;;;;5018097;28;20318;-77
2023/03/19 03:36:17;;;;;;;9.57;8.43;;;31.60;99.90;;;;;;5021603;28;20279;-77
2023/03/19 03:39:13;;;;;;;10.77;8.27;;;31.60;99.90;;;;;;5018162;28;20204;-77
2023/03/19 03:41:46;;;;;;;10.00;7.78;;;31.70;99.90;;;;;;5012433;28;20201;-78
2023/03/19 03:44:20;;;;;;;11.32;8.27;;;31.70;99.90;;;;;;5012598;28;20202;-77
2023/03/19 03:46:51;;;;;;;8.05;7.18;;;31.70;99.90;;;;;;5011410;28;20202;-78
2023/03/19 03:49:24;;;;;;;7.55;6.35;;;31.80;99.90;;;;;;5009580;28;20197;-77
2023/03/19 03:51:56;;;;;;;7.65;6.93;;;31.70;99.90;;;;;;5009972;28;20194;-77
2023/03/19 03:54:27;;;;;;;9.32;6.50;;;31.80;99.90;;;;;;5009628;28;20388;-76
2023/03/19 03:56:58;;;;;;;8.90;6.30;;;31.80;99.90;;;;;;5008517;28;20239;-76
2023/03/19 03:59:31;;;;;;;11.13;6.57;;;31.80;99.90;;;;;;5010329;28;20194;-76
2023/03/19 04:02:02;;;;;;;8.32;6.47;;;31.80;99.90;;;;;;5007885;28;20205;-77
2023/03/19 04:04:33;;;;;;;10.00;5.97;;;31.80;99.90;;;;;;5010229;28;20201;-77
2023/03/19 04:07:05;;;;;;;7.03;5.70;;;31.70;99.90;;;;;;5018603;28;20225;-76
2023/03/19 04:09:36;;;;;;;7.55;5.82;;;31.70;99.90;;;;;;5009456;28;20632;-77
2023/03/19 04:12:10;;;;;;;6.55;5.28;;;31.60;99.90;;;;;;5010193;28;20205;-77
2023/03/19 04:14:43;;;;;;;7.80;5.60;;;31.50;99.90;;;;;;5008402;28;20262;-76
2023/03/19 04:17:14;;;;;;;6.43;5.57;;;31.50;99.90;;;;;;5009788;28;20194;-77
2023/03/19 04:19:45;;;;;;;8.02;5.45;;;31.40;99.90;;;;;;5009500;28;20197;-77
2023/03/19 04:22:17;;;;;;;6.57;5.63;;;31.30;99.90;;;;;;5008909;28;20225;-77
2023/03/19 04:24:48;;;;;;;8.57;5.78;;;31.20;99.90;;;;;;5010364;28;20206;-78
2023/03/19 04:27:19;;;;;;;9.82;5.47;;;31.10;99.90;;;;;;5008350;28;20205;-77
2023/03/19 04:29:53;;;;;;;12.15;5.38;;;31.10;99.90;;;;;;5009919;28;20212;-76
2023/03/19 04:32:24;;;;;;;7.10;5.60;;;31.00;99.90;;;;;;5010653;28;20259;-75
2023/03/19 04:34:55;;;;;;;8.45;5.80;;;31.00;99.90;;;;;;5007555;28;20225;-77
2023/03/19 04:37:26;;;;;;;9.20;5.80;;;31.00;99.90;;;;;;5009805;28;20202;-77
2023/03/19 04:39:58;;;;;;;7.70;5.25;;;31.00;99.90;;;;;;5008892;28;20229;-77
2023/03/19 04:42:29;;;;;;;9.40;5.25;;;31.00;99.90;;;;;;5009238;28;20198;-78
2023/03/19 04:45:04;;;;;;;9.00;5.40;;;31.00;99.90;;;;;;5013825;28;20208;-77
2023/03/19 04:47:35;;;;;;;7.43;5.20;;;31.00;99.90;;;;;;5023960;28;20675;-78
2023/03/19 04:50:07;;;;;;;8.95;5.10;;;31.00;99.90;;;;;;5041052;28;20220;-78
2023/03/19 04:52:42;;;;;;;8.40;5.15;;;31.00;99.90;;;;;;5037506;28;20189;-79
2023/03/19 04:55:13;;;;;;;8.00;5.30;;;31.10;99.90;;;;;;5028456;28;20483;-77
2023/03/19 04:57:45;;;;;;;8.60;5.47;;;31.10;99.90;;;;;;5041603;28;20201;-77
2023/03/19 05:00:19;;;;;;;10.25;5.88;;;31.00;99.90;;;;;;5031612;28;20221;-77
2023/03/19 05:02:50;;;;;;;9.05;6.35;;;31.00;99.90;;;;;;5013148;28;20676;-76
2023/03/19 05:05:21;;;;;;;10.82;6.60;;;30.90;99.90;;;;;;5009056;28;20212;-77
2023/03/19 05:07:52;;;;;;;9.73;6.63;;;31.00;99.90;;;;;;5018920;28;20212;-76
2023/03/19 05:10:23;;;;;;;11.88;6.00;;;31.00;99.90;;;;;;5009552;28;20672;-77
2023/03/19 05:12:54;;;;;;;8.63;6.05;;;31.00;99.90;;;;;;5014536;28;20206;-77
2023/03/19 05:15:27;;;;;;;11.07;6.50;;;30.90;99.90;;;;;;5014038;28;20228;-77
2023/03/19 05:18:00;;;;;;;8.57;6.25;;;30.90;99.90;;;;;;5013964;28;20668;-77
2023/03/19 05:20:32;;;;;;;11.45;5.85;;;31.00;99.90;;;;;;5014929;28;20426;-77
2023/03/19 05:23:03;;;;;;;9.63;5.60;;;30.90;99.90;;;;;;5012035;28;20491;-77
2023/03/19 05:25:35;;;;;;;8.32;5.05;;;30.90;99.90;;;;;;5012973;28;20212;-77
2023/03/19 05:28:07;;;;;;;10.75;5.13;;;31.00;99.90;;;;;;5013053;28;20202;-77
2023/03/19 05:30:40;;;;;;;9.50;5.43;;;31.10;99.90;;;;;;5013721;28;20853;-76
2023/03/19 05:33:12;;;;;;;10.32;5.30;;;31.10;99.90;;;;;;5012960;28;20201;-78
2023/03/19 05:35:43;;;;;;;8.57;4.88;;;31.30;99.90;;;;;;5013113;28;20221;-78
2023/03/19 05:38:14;;;;;;;8.57;4.53;;;31.20;99.90;;;;;;5012511;28;20677;-78
2023/03/19 05:40:45;;;;;;;8.82;4.70;;;31.30;99.90;;;;;;5014501;28;20548;-76
2023/03/19 05:43:19;;;;;;;10.18;4.75;;;31.30;99.90;;;;;;5012293;28;20205;-77
2023/03/19 05:45:55;;;;;;;9.90;4.72;;;31.40;99.90;;;;;;5017622;28;20205;-77
2023/03/19 05:48:26;;;;;;;8.95;4.13;;;31.50;99.90;;;;;;5013095;28;20193;-76
2023/03/19 05:50:58;;;;;;;6.47;4.10;;;31.50;99.90;;;;;;5013589;28;20287;-77
2023/03/19 05:53:31;;;;;;;9.55;4.40;;;31.50;99.90;;;;;;5012801;28;20201;-77
2023/03/19 05:56:02;;;;;;;8.50;4.07;;;31.50;99.90;;;;;;5012173;28;20248;-76
2023/03/19 05:58:33;;;;;;;9.98;4.55;;;31.60;99.90;;;;;;5016341;28;20202;-77
2023/03/19 06:01:07;;;;;;;8.15;4.32;;;31.70;99.90;;;;;;5013478;28;20205;-77
2023/03/19 06:03:38;;;;;;;11.70;4.13;;;31.80;99.90;;;;;;5019543;28;20209;-77
2023/03/19 06:06:09;;;;;;;8.48;4.03;;;32.00;99.90;;;;;;5024577;28;20209;-77
2023/03/19 06:08:40;;;;;;;5.20;3.78;;;32.00;99.90;;;;;;5021074;28;20212;-76
2023/03/19 06:11:12;;;;;;;13.35;3.80;;;32.20;99.90;;;;;;5017438;28;20222;-76
2023/03/19 06:13:43;;;;;;;8.80;3.67;;;32.20;99.90;;;;;;5018302;28;20201;-77
2023/03/19 06:16:16;;;;;;;12.38;4.20;;;32.40;99.90;;;;;;5017311;28;20216;-78
2023/03/19 06:18:48;;;;;;;8.73;3.92;;;32.40;99.90;;;;;;5013912;28;20215;-76
2023/03/19 06:21:19;;;;;;;6.68;4.03;;;32.40;99.90;;;;;;5011052;28;20201;-76
2023/03/19 06:23:50;;;;;;;7.15;3.65;;;32.40;99.90;;;;;;5014597;28;20699;-77
2023/03/19 06:26:21;;;;;;;6.82;3.40;;;32.50;99.90;;;;;;5010900;28;20216;-78
2023/03/19 06:28:52;;;;;;;8.85;3.40;;;32.70;99.90;;;;;;5012055;28;20209;-76
2023/03/19 06:31:28;;;;;;;6.47;2.92;;;32.90;99.90;;;;;;5012166;28;20208;-76
2023/03/19 06:33:59;;;;;;;4.55;2.63;;;33.10;99.90;;;;;;5014110;28;20240;-77
2023/03/19 06:36:34;;;;;;;6.85;3.15;;;33.30;99.90;;;;;;5014802;28;20196;-76
2023/03/19 06:39:05;;;;;;;9.50;3.47;;;33.40;99.90;;;;;;5011875;28;20691;-78
2023/03/19 06:41:38;;;;;;;6.35;3.20;;;33.80;99.90;;;;;;5012218;28;20641;-78
2023/03/19 06:44:09;;;;;;;6.07;3.05;;;34.00;99.90;;;;;;5021417;28;20204;-78
2023/03/19 06:46:42;;;;;;;8.15;3.25;;;34.20;99.90;;;;;;5012596;28;20197;-76
2023/03/19 06:49:14;;;;;;;9.38;2.78;;;34.60;99.90;;;;;;5014180;28;20198;-76
2023/03/19 06:51:45;;;;;;;7.63;2.60;;;34.70;99.90;;;;;;5011450;28;20221;-77
2023/03/19 06:54:16;;;;;;;6.35;2.60;;;35.10;99.90;;;;;;5033736;28;20205;-77
2023/03/19 06:56:47;;;;;;;9.35;3.28;;;35.40;99.90;;;;;;5034971;28;20329;-77
2023/03/19 06:59:19;;;;;;;6.22;2.70;;;35.30;99.90;;;;;;5029444;28;20225;-77
2023/03/19 07:01:52;;;;;;;5.45;2.65;;;35.40;99.90;;;;;;5018229;28;20201;-77
2023/03/19 07:04:23;;;;;;;5.85;2.95;;;35.50;99.90;;;;;;5013858;28;20218;-76
2023/03/19 07:06:54;;;;;;;5.75;2.65;;;35.50;99.90;;;;;;5017498;28;20220;-76
2023/03/19 07:09:26;;;;;;;5.45;2.40;;;35.20;99.90;;;;;;5010110;28;20209;-76
2023/03/19 07:11:57;;;;;;;8.30;2.97;;;35.10;99.90;;;;;;5009619;28;20656;-77
2023/03/19 07:14:28;;;;;;;6.05;2.92;;;35.00;99.90;;;;;;5009141;28;20225;-76
2023/03/19 07:17:01;;;;;;;6.30;2.70;;;34.70;99.90;;;;;;5010884;28;20832;-77
2023/03/19 07:19:33;;;;;;;6.53;3.10;;;34.40;99.90;;;;;;5010754;28;20276;-77
2023/03/19 07:22:04;;;;;;;6.00;2.70;;;33.80;99.90;;;;;;5010488;28;20206;-77
2023/03/19 07:24:35;;;;;;;7.03;3.05;;;33.40;99.90;;;;;;5010097;28;20290;-78
2023/03/19 07:27:06;;;;;;;7.65;3.03;;;33.00;99.90;;;;;;5009677;28;20205;-77
2023/03/19 07:29:37;;;;;;;6.15;2.78;;;32.50;99.90;;;;;;5009633;28;20227;-79
2023/03/19 07:32:11;;;;;;;7.45;3.00;;;32.30;99.90;;;;;;5011641;28;20204;-78
2023/03/19 07:34:42;;;;;;;10.18;3.28;;;31.90;99.90;;;;;;5010703;28;20601;-77
2023/03/19 07:37:13;;;;;;;6.45;2.80;;;31.70;99.90;;;;;;5012104;28;20583;-77
2023/03/19 07:39:44;;;;;;;9.52;3.05;;;31.30;99.90;;;;;;5010732;28;20200;-78
2023/03/19 07:42:16;;;;;;;7.70;3.08;;;31.00;99.90;;;;;;5015789;28;20656;-78
2023/03/19 07:44:47;;;;;;;7.82;3.22;;;30.70;99.90;;;;;;5013119;28;20208;-77
2023/03/19 07:47:20;;;;;;;8.63;3.20;;;30.50;99.90;;;;;;5015649;28;20198;-77
2023/03/19 07:49:51;;;;;;;7.80;3.35;;;30.30;99.90;;;;;;5011783;28;20212;-77
2023/03/19 07:52:22;;;;;;;6.05;3.08;;;30.10;99.90;;;;;;5009444;28;20776;-78
2023/03/19 07:54:54;;;;;;;6.13;3.20;;;29.90;99.90;;;;;;5009817;28;20224;-77
2023/03/19 07:57:25;;;;;;;9.63;3.47;;;29.70;99.90;;;;;;5011071;28;20209;-78
2023/03/19 07:59:56;;;;;;;7.28;3.17;;;29.50;99.90;;;;;;5008994;28;20305;-77
2023/03/19 08:02:30;;;;;;;7.05;3.28;;;29.50;99.90;;;;;;5010948;28;20679;-78
2023/03/19 08:05:03;;;;;;;11.57;4.07;;;29.40;99.90;;;;;;5011975;28;20228;-77
2023/03/19 08:07:34;;;;;;;7.45;3.63;;;29.20;99.90;;;;;;5018069;28;20233;-76
2023/03/19 08:10:06;;;;;;;8.02;3.60;;;29.10;99.90;;;;;;5008803;28;20201;-77
2023/03/19 08:12:39;;;;;;;5.38;2.95;;;29.10;99.90;;;;;;5010074;28;20258;-77
2023/03/19 08:15:12;;;;;;;6.43;3.63;;;28.90;99.90;;;;;;5011417;28;20275;-77
2023/03/19 08:17:45;;;;;;;8.30;3.22;;;28.90;99.90;;;;;;5010274;28;20249;-77
2023/03/19 08:20:18;;;;;;;8.15;3.55;;;28.80;99.90;;;;;;5010503;28;20535;-78
2023/03/19 08:22:52;;;;;;;9.52;3.60;;;28.70;99.90;;;;;;5009198;28;20216;-77
2023/03/19 08:25:23;;;;;;;8.45;4.00;;;28.70;99.90;;;;;;5009079;28;21407;-76
2023/03/19 08:27:57;;;;;;;7.72;3.83;;;28.60;99.90;;;;;;5010754;28;20694;-78
2023/03/19 08:30:28;;;;;;;10.60;4.25;;;28.60;99.90;;;;;;5011507;28;20201;-77
2023/03/19 08:33:01;;;;;;;9.60;4.93;;;28.60;99.90;;;;;;5014863;28;20201;-77
2023/03/19 08:38:30;;;;;;;6.90;4.82;;;28.60;99.90;;;;;;5016573;28;20224;-77
2023/03/19 08:41:27;;;;;;;9.63;4.90;;;28.50;99.90;;;;;;5023435;28;20576;-78
2023/03/19 08:43:58;;;;;;;7.50;5.00;;;28.50;99.90;;;;;;5030916;28;20279;-79
2023/03/19 08:46:32;;;;;;;8.93;5.40;;;28.40;99.90;;;;;;5025009;28;20277;-81
2023/03/19 08:49:33;;;;;;;11.38;5.55;;;28.30;99.90;;;;;;5027986;28;20612;-77
2023/03/19 08:52:11;;;;;;;8.98;6.15;;;28.30;99.90;;;;;;5029103;28;20202;-77
2023/03/19 08:54:43;;;;;;;8.68;6.43;;;28.10;99.90;;;;;;5026390;28;20196;-80
2023/03/19 08:57:22;;;;;;;9.40;6.90;;;28.10;99.90;;;;;;5023672;28;20224;-80
2023/03/19 09:00:00;;;;;;;12.27;8.70;;;28.00;99.90;;;;;;5023103;28;20192;-79
2023/03/19 09:02:34;;;;;;;13.40;8.68;;;27.90;99.90;;;;;;5022039;28;20193;-77
2023/03/19 09:05:21;;;;;;;15.38;10.35;;;27.80;99.90;;;;;;5023658;28;20220;-77
2023/03/19 09:07:54;;;;;;;15.55;11.35;;;27.70;99.90;;;;;;5026080;28;20197;-79
2023/03/19 09:10:47;;;;;;;14.82;12.18;;;27.60;99.90;;;;;;5019500;28;20212;-78
2023/03/19 09:13:20;;;;;;;18.20;13.80;;;27.50;99.90;;;;;;5032977;28;20823;-77
2023/03/19 09:15:54;;;;;;;19.55;14.73;;;27.40;99.90;;;;;;5021070;28;20229;-77
2023/03/19 09:18:39;;;;;;;21.95;17.15;;;27.30;99.90;;;;;;5018102;28;20569;-80
2023/03/19 09:21:12;;;;;;;23.20;16.67;;;27.30;99.90;;;;;;5033230;28;20216;-76
2023/03/19 09:23:46;;;;;;;23.27;17.23;;;27.20;99.90;;;;;;5023776;28;20497;-77
2023/03/19 09:26:20;;;;;;;21.48;15.80;;;27.10;99.90;;;;;;5016538;28;20597;-78
2023/03/19 09:28:52;;;;;;;20.83;15.30;;;27.00;99.90;;;;;;5019898;28;20652;-78
2023/03/19 09:31:27;;;;;;;23.30;16.90;;;26.90;99.90;;;;;;5018247;28;20754;-77
2023/03/19 09:34:10;;;;;;;19.88;15.48;;;26.80;99.90;;;;;;5031239;28;20193;-80
2023/03/19 09:36:57;;;;;;;22.00;15.85;;;26.70;99.90;;;;;;5024737;28;20217;-78
2023/03/19 09:39:29;;;;;;;20.20;15.15;;;26.80;99.90;;;;;;5026968;28;20212;-78
2023/03/19 09:42:12;;;;;;;21.73;14.77;;;26.80;99.90;;;;;;5020659;28;20194;-78
2023/03/19 09:44:58;;;;;;;20.40;14.57;;;26.70;99.90;;;;;;5018378;28;20174;-78
2023/03/19 09:47:35;;;;;;;22.52;13.48;;;26.60;99.90;;;;;;5025942;28;20276;-76
2023/03/19 09:50:16;;;;;;;22.25;13.13;;;26.60;99.90;;;;;;5019812;28;20192;-77
2023/03/19 09:52:52;;;;;;;21.98;12.68;;;26.60;99.90;;;;;;5016750;28;20190;-78
2023/03/19 09:55:34;;;;;;;26.95;11.18;;;26.50;99.90;;;;;;5013500;28;20291;-77
2023/03/19 09:58:12;;;;;;;22.88;11.32;;;26.50;99.90;;;;;;5021650;28;20193;-78
2023/03/19 10:00:44;;;;;;;20.67;10.70;;;26.50;99.90;;;;;;5019384;28;20193;-77
2023/03/19 10:03:35;;;;;;;22.23;10.75;;;26.40;99.90;;;;;;5020113;28;20591;-78
2023/03/19 10:06:28;;;;;;;24.00;10.80;;;26.40;99.90;;;;;;5032463;28;20274;-81
2023/03/19 10:09:36;;;;;;;22.33;10.65;;;26.40;99.90;;;;;;5024363;28;20205;-78
2023/03/19 10:12:19;;;;;;;24.80;9.68;;;26.40;99.90;;;;;;5016705;28;20209;-78
2023/03/19 10:15:23;;;;;;;22.60;9.73;;;26.40;99.90;;;;;;5022572;28;20197;-78
2023/03/19 10:18:04;;;;;;;22.73;9.13;;;26.40;99.90;;;;;;5010686;28;20208;-78
2023/03/19 10:23:44;;;;;;;26.77;8.95;;;26.40;99.90;;;;;;5019764;28;20193;-80
2023/03/19 10:26:34;;;;;;;26.15;8.82;;;26.40;99.90;;;;;;5022969;28;20235;-77
2023/03/19 10:29:22;;;;;;;21.73;7.97;;;26.40;99.90;;;;;;5023728;28;20678;-79
2023/03/19 10:32:09;;;;;;;23.60;7.78;;;26.40;99.90;;;;;;5016130;28;20205;-79
2023/03/19 10:34:47;;;;;;;24.40;7.80;;;26.40;99.90;;;;;;5017476;28;20236;-80
2023/03/19 10:37:49;;;;;;;25.55;7.90;;;26.40;99.90;;;;;;5027912;28;20235;-78
2023/03/19 10:40:31;;;;;;;23.70;7.82;;;26.40;99.90;;;;;;5029280;28;20261;-78
2023/03/19 10:43:25;;;;;;;27.75;7.28;;;26.30;99.90;;;;;;5019570;28;20744;-79
2023/03/19 10:46:05;;;;;;;22.48;6.97;;;26.30;99.90;;;;;;5030696;28;20233;-79
2023/03/19 10:48:52;;;;;;;22.73;6.97;;;26.30;99.90;;;;;;5024108;28;20200;-78
2023/03/19 10:51:49;;;;;;;21.58;6.68;;;26.30;99.90;;;;;;5029660;28;20205;-78
2023/03/19 10:54:27;;;;;;;25.30;7.13;;;26.30;99.90;;;;;;5028047;28;21412;-77
2023/03/19 10:59:53;;;;;;;22.25;7.28;;;26.30;99.90;;;;;;5032754;28;20198;-78
2023/03/19 11:02:49;;;;;;;19.95;6.38;;;26.20;99.90;;;;;;5018727;28;20275;-78
2023/03/19 11:05:31;;;;;;;26.77;7.13;;;26.30;99.90;;;;;;5014165;28;20197;-78
2023/03/19 11:08:20;;;;;;;28.88;7.82;;;26.20;99.90;;;;;;5019301;28;20209;-78
2023/03/19 11:11:00;;;;;;;28.60;7.20;;;26.20;99.90;;;;;;5015930;28;20216;-77
2023/03/19 11:13:32;;;;;;;29.42;7.90;;;26.20;99.90;;;;;;5019961;28;20224;-78
2023/03/19 11:16:05;;;;;;;31.52;8.20;;;26.20;99.90;;;;;;5009851;28;20225;-76
2023/03/19 11:18:41;;;;;;;29.48;7.60;;;26.20;99.90;;;;;;5011469;28;20206;-77
2023/03/19 11:21:26;;;;;;;30.58;8.15;;;26.10;99.90;;;;;;5011761;28;20202;-78
2023/03/19 11:24:02;;;;;;;26.65;7.47;;;26.10;99.90;;;;;;5011676;28;20216;-76
2023/03/19 11:27:14;;;;;;;23.83;8.27;;;26.20;99.90;;;;;;5013866;28;20201;-77
2023/03/19 11:29:55;;;;;;;27.05;8.20;;;26.20;99.90;;;;;;5021329;28;20201;-77
2023/03/19 11:32:57;;;;;;;28.00;8.02;;;26.20;99.90;;;;;;5017530;28;20563;-76
2023/03/19 11:35:32;;;;;;;23.20;7.05;;;26.20;99.90;;;;;;4997887;28;20201;-75
2023/03/19 11:38:05;;;;;;;27.00;7.90;;;26.10;99.90;;;;;;5012327;28;20205;-77
2023/03/19 11:40:45;;;;;;;23.77;6.82;;;26.10;99.90;;;;;;5019324;28;20504;-76
2023/03/19 11:43:42;;;;;;;25.48;7.53;;;26.10;99.90;;;;;;5039473;28;20280;-77
2023/03/19 11:46:21;;;;;;;21.70;6.82;;;26.10;99.90;;;;;;5042882;28;20226;-77
2023/03/19 11:49:13;;;;;;;28.40;8.10;;;26.10;99.90;;;;;;5039558;28;20191;-76
2023/03/19 11:51:51;;;;;;;23.38;7.63;;;26.10;99.90;;;;;;5019395;28;21148;-76
2023/03/19 11:54:30;;;;;;;23.33;7.85;;;26.10;99.90;;;;;;5014348;28;20204;-77
2023/03/19 11:57:05;;;;;;;31.38;8.75;;;26.00;99.90;;;;;;4997265;28;20245;-76
2023/03/19 11:59:58;;;;;;;33.33;8.38;;;26.00;99.90;;;;;;5014225;28;20389;-76
2023/03/19 12:02:55;;;;;;;25.88;7.90;;;26.00;99.90;;;;;;5016018;28;20201;-76
2023/03/19 12:05:45;;;;;;;26.83;8.40;;;25.90;99.90;;;;;;5017944;28;20288;-78
2023/03/19 12:08:29;;;;;;;23.60;7.70;;;26.00;99.90;;;;;;5014800;28;20271;-77
2023/03/19 12:11:11;;;;;;;28.02;8.35;;;26.00;99.90;;;;;;5011991;28;20196;-78
2023/03/19 12:13:53;;;;;;;26.30;8.02;;;26.00;99.90;;;;;;5011961;28;20205;-77
2023/03/19 12:16:36;;;;;;;28.27;8.10;;;26.00;99.90;;;;;;5013862;28;21438;-77
2023/03/19 12:19:27;;;;;;;22.83;7.75;;;26.00;99.90;;;;;;5011537;28;20324;-77
2023/03/19 12:22:10;;;;;;;28.77;8.70;;;25.90;99.90;;;;;;5012817;28;20217;-76
2023/03/19 12:24:54;;;;;;;24.90;7.10;;;25.90;99.90;;;;;;5015410;28;20203;-76
2023/03/19 12:27:34;;;;;;;24.13;6.93;;;25.90;99.90;;;;;;5012951;28;20255;-77
2023/03/19 12:30:14;;;;;;;27.10;7.53;;;25.90;99.90;;;;;;5015835;28;20225;-75
2023/03/19 12:33:06;;;;;;;24.95;7.38;;;25.80;99.90;;;;;;5012975;28;20216;-75
2023/03/19 12:35:39;;;;;;;26.58;8.10;;;25.80;99.90;;;;;;5013573;28;20207;-76
2023/03/19 12:38:22;;;;;;;27.40;7.95;;;25.90;99.90;;;;;;5011732;28;20196;-77
2023/03/19 12:40:59;;;;;;;24.10;7.03;;;25.80;99.90;;;;;;5016536;28;20217;-76
2023/03/19 12:43:36;;;;;;;30.75;7.63;;;25.80;99.90;;;;;;5012613;28;20205;-77
2023/03/19 12:46:15;;;;;;;30.02;7.50;;;25.80;99.90;;;;;;5012612;28;20637;-76
2023/03/19 12:48:52;;;;;;;24.33;7.22;;;25.80;99.90;;;;;;5014437;28;20202;-78
2023/03/19 12:51:27;;;;;;;27.70;7.90;;;25.80;99.90;;;;;;5012695;28;20201;-76
2023/03/19 12:54:04;;;;;;;28.45;7.60;;;25.80;99.90;;;;;;5010816;28;20275;-76
2023/03/19 12:56:45;;;;;;;25.95;7.15;;;25.70;99.90;;;;;;5011419;28;20244;-79
2023/03/19 12:59:32;;;;;;;23.63;7.00;;;25.70;99.90;;;;;;5013755;28;20217;-77
2023/03/19 13:02:14;;;;;;;24.98;7.47;;;25.70;99.90;;;;;;5011427;28;20201;-76
2023/03/19 13:04:53;;;;;;;25.23;7.13;;;25.70;99.90;;;;;;5014066;28;20255;-77
2023/03/19 13:07:30;;;;;;;24.70;6.80;;;25.70;99.90;;;;;;5007755;28;20656;-76
2023/03/19 13:10:07;;;;;;;25.75;7.63;;;25.70;99.90;;;;;;5008884;28;20200;-77
2023/03/19 13:12:42;;;;;;;24.38;7.30;;;25.70;99.90;;;;;;5008571;28;20201;-77
2023/03/19 13:15:17;;;;;;;20.77;6.93;;;25.70;99.90;;;;;;5007324;28;20212;-76
2023/03/19 13:17:59;;;;;;;23.88;6.63;;;25.70;99.90;;;;;;5009029;28;20239;-77
2023/03/19 13:20:39;;;;;;;18.92;6.55;;;25.60;99.90;;;;;;5008459;28;20687;-77
2023/03/19 13:23:14;;;;;;;27.60;6.90;;;25.60;99.90;;;;;;5007344;28;20214;-77
2023/03/19 13:25:49;;;;;;;20.58;6.28;;;25.70;99.90;;;;;;5007378;28;20201;-77
2023/03/19 13:28:31;;;;;;;22.02;6.63;;;25.60;99.90;;;;;;5009522;28;20197;-77
2023/03/19 13:31:06;;;;;;;22.38;7.82;;;25.60;99.90;;;;;;5012079;28;20202;-78
2023/03/19 13:33:39;;;;;;;26.42;7.70;;;25.60;99.90;;;;;;5016554;28;21532;-77
2023/03/19 13:36:14;;;;;;;23.42;6.85;;;25.60;99.90;;;;;;5016768;28;20201;-77